Minneapolis-Saint Paul International, MN

9:21 PM CDT on August 29, 2015 (GMT -0500)
Highland Park-Miss. Rvr Blvd & Cleveland | | Change Station
CLOSE
Current Station
Personal Weather Station
Location: St. Paul, MN
Elevation: 841 ft
Nearby Weather Stations

Elev 841 ft 44.90 °N, 93.19 °W | Updated 13 seconds ago

Mostly Cloudy
Mostly Cloudy
66.0 °F
Feels Like 66.0 °F
N
0.0
Wind Variable Wind from SE
Gusts 5.0 mph

Today
High -- | Low -- °F
--% Chance of Precip.
Yesterday
High -- | Low -- °F
Precip. -- in
6:31 AM 7:55 PM
Full, 100% visible
Pressure 30.01 in
Visibility 10.0 miles
Clouds Mostly Cloudy 30000 ft
Dew Point Not available.
Humidity Not available.
Rainfall 0.00 in
Snow Depth Not available.
UV 0 out of 12
Pollen 8.30 out of 12
Air Quality Not available.
Flu Activity Not available.
METAR KMSP 300153Z 16005KT 10SM BKN300 21/17 A3001 RMK AO2 SLP163 T02060172
Pressure 30.01 in
Visibility 10.0 miles
Clouds Mostly Cloudy 30000 ft
Dew Point Not available.
Humidity Not available.
Rainfall 0.00 in
Snow Depth Not available.
UV 0 out of 12
Pollen 8.30 out of 12
Air Quality Not available.
Flu Activity Not available.
METAR KMSP 300153Z 16005KT 10SM BKN300 21/17 A3001 RMK AO2 SLP163 T02060172

10-Day Weather Forecast

×

Almanac

Astronomy

Aug. 29, 2015 Rise Set
Actual Time
Civil Twilight
Nautical Twilight
Astronomical Twilight
Moon
Length of Visible Light
Length of Day
Tomorrow will be .
, % of the Moon is Illuminated

Today's Extremes

State Highs State Lows

Community

WunderPhotos

Upload Photos

1,850,850 photos uploaded!

WunderBlogs® & News

Nearby

Air Quality

  Air Quality AQ Index Pollutant
Not available.

Snow Depth

Station Depth Elevation

Earthquake Activity

City Distance Mag. Time & Date
Minimum magnitude displayed is 2.5.

Coastal Water Temperatures

Place Temperature

Stations

Nearby Weather Stations

Station Location Temp. Windchill Dew Point Humidity Wind Precip. Elev Updated Type